createdAt,value
2023-02-16T00:01:23.163Z,12.23
2023-02-16T00:03:53.053Z,8.98
2023-02-16T00:06:22.207Z,12.23
2023-02-16T00:08:53.463Z,8.85
2023-02-16T00:11:48.249Z,8.00
2023-02-16T00:14:17.654Z,9.70
2023-02-16T00:16:46.651Z,7.57
2023-02-16T00:19:41.622Z,11.52
2023-02-16T00:22:12.429Z,8.70
2023-02-16T00:24:41.347Z,9.57
2023-02-16T00:27:19.831Z,8.70
2023-02-16T00:29:48.748Z,21.58
2023-02-16T00:32:17.856Z,9.43
2023-02-16T00:34:46.827Z,9.43
2023-02-16T00:37:16.226Z,9.10
2023-02-16T00:39:46.603Z,7.40
2023-02-16T00:42:28.210Z,6.38
2023-02-16T00:44:59.667Z,8.88
2023-02-16T00:47:39.582Z,9.20
2023-02-16T00:50:33.894Z,8.85
2023-02-16T00:53:06.116Z,10.43
2023-02-16T00:55:37.477Z,6.28
2023-02-16T00:58:16.882Z,9.45
2023-02-16T01:00:57.666Z,21.98
2023-02-16T01:03:31.665Z,14.10
2023-02-16T01:06:18.822Z,14.32
2023-02-16T01:09:06.135Z,13.70
2023-02-16T01:11:35.183Z,9.32
2023-02-16T01:14:04.146Z,11.40
2023-02-16T01:16:43.060Z,9.35
2023-02-16T01:19:15.221Z,8.00
2023-02-16T01:21:44.353Z,7.00
2023-02-16T01:24:13.318Z,9.07
2023-02-16T01:26:45.892Z,11.35
2023-02-16T01:29:23.020Z,15.95
2023-02-16T01:31:52.257Z,8.95
2023-02-16T01:34:21.459Z,9.23
2023-02-16T01:36:51.093Z,10.13
2023-02-16T01:39:21.952Z,10.27
2023-02-16T01:41:57.125Z,15.55
2023-02-16T01:44:29.667Z,9.88
2023-02-16T01:47:17.139Z,9.35
2023-02-16T01:49:46.106Z,9.32
2023-02-16T01:52:44.332Z,8.30
2023-02-16T01:55:21.482Z,5.95
2023-02-16T01:57:59.093Z,7.93
2023-02-16T02:00:50.766Z,7.40
2023-02-16T02:03:56.305Z,6.20
2023-02-16T02:06:37.548Z,7.78
2023-02-16T02:10:08.464Z,8.18
2023-02-16T02:12:59.840Z,8.02
2023-02-16T02:15:32.741Z,6.43
2023-02-16T02:18:02.320Z,13.05
2023-02-16T02:21:15.324Z,6.10
2023-02-16T02:24:07.544Z,5.55
2023-02-16T02:27:00.236Z,4.43
2023-02-16T02:29:53.792Z,7.80
2023-02-16T02:32:43.780Z,8.15
2023-02-16T02:35:50.586Z,5.28
2023-02-16T02:38:22.565Z,6.28
2023-02-16T02:41:17.511Z,5.40
2023-02-16T02:43:56.678Z,5.18
2023-02-16T02:46:32.737Z,6.30
2023-02-16T02:49:01.777Z,5.47
2023-02-16T02:51:30.821Z,4.80
2023-02-16T02:54:22.834Z,7.03
2023-02-16T02:57:32.908Z,6.00
2023-02-16T03:00:44.956Z,6.03
2023-02-16T03:03:33.860Z,5.57
2023-02-16T03:06:15.325Z,5.97
2023-02-16T03:08:49.290Z,6.28
2023-02-16T03:14:43.284Z,12.43
2023-02-16T03:17:37.342Z,6.85
2023-02-16T03:20:27.704Z,7.05
2023-02-16T03:23:16.081Z,5.20
2023-02-16T03:26:04.368Z,6.90
2023-02-16T03:28:54.107Z,12.13
2023-02-16T03:31:29.598Z,5.50
2023-02-16T03:33:58.818Z,5.80
2023-02-16T03:36:31.013Z,7.18
2023-02-16T03:39:01.054Z,4.65
2023-02-16T03:41:34.657Z,13.45
2023-02-16T03:44:03.672Z,5.95
2023-02-16T03:46:33.027Z,7.60
2023-02-16T03:49:01.969Z,5.63
2023-02-16T03:51:30.884Z,5.70
2023-02-16T03:54:00.727Z,6.25
2023-02-16T03:56:29.659Z,7.78
2023-02-16T03:58:58.735Z,8.35
2023-02-16T04:01:28.020Z,5.47
2023-02-16T04:03:56.993Z,5.07
2023-02-16T04:06:26.203Z,6.90
2023-02-16T04:08:55.750Z,7.78
2023-02-16T04:11:42.612Z,10.05
2023-02-16T04:14:11.537Z,7.13
2023-02-16T04:16:40.544Z,16.13
2023-02-16T04:19:09.489Z,13.38
2023-02-16T04:21:38.320Z,5.90
2023-02-16T04:24:07.576Z,6.03
2023-02-16T04:26:36.559Z,6.65
2023-02-16T04:29:05.452Z,8.85
2023-02-16T04:31:34.400Z,7.00
2023-02-16T04:34:03.377Z,8.88
2023-02-16T04:36:32.775Z,7.13
2023-02-16T04:39:01.769Z,9.75
2023-02-16T04:41:30.694Z,5.85
2023-02-16T04:43:59.719Z,8.35
2023-02-16T04:46:28.664Z,5.55
2023-02-16T04:48:57.669Z,8.55
2023-02-16T04:51:26.785Z,6.22
2023-02-16T04:53:55.724Z,12.95
2023-02-16T04:56:24.702Z,8.27
2023-02-16T04:58:53.847Z,8.50
2023-02-16T05:01:25.002Z,8.82
2023-02-16T05:03:54.037Z,9.48
2023-02-16T05:06:23.039Z,7.80
2023-02-16T05:08:51.899Z,6.95
2023-02-16T05:11:38.690Z,5.75
2023-02-16T05:14:26.270Z,6.43
2023-02-16T05:16:55.219Z,6.85
2023-02-16T05:19:24.158Z,6.25
2023-02-16T05:21:53.061Z,6.30
2023-02-16T05:24:21.923Z,6.00
2023-02-16T05:26:50.815Z,7.47
2023-02-16T05:29:19.705Z,7.10
2023-02-16T05:31:49.803Z,11.02
2023-02-16T05:34:18.773Z,6.00
2023-02-16T05:36:47.720Z,5.85
2023-02-16T05:39:16.799Z,6.10
2023-02-16T05:41:45.860Z,6.18
2023-02-16T05:44:14.906Z,10.23
2023-02-16T05:46:44.602Z,7.20
2023-02-16T05:49:14.110Z,8.13
2023-02-16T05:51:43.011Z,9.60
2023-02-16T05:54:18.213Z,5.95
2023-02-16T05:56:49.686Z,8.77
2023-02-16T05:59:19.228Z,6.70
2023-02-16T06:01:51.624Z,6.05
2023-02-16T06:04:22.400Z,7.20
2023-02-16T06:06:51.655Z,6.90
2023-02-16T06:09:20.610Z,6.20
2023-02-16T06:11:49.792Z,6.05
2023-02-16T06:14:20.916Z,9.80
2023-02-16T06:16:52.826Z,6.07
2023-02-16T06:19:22.545Z,6.25
2023-02-16T06:21:51.397Z,6.30
2023-02-16T06:24:20.347Z,5.43
2023-02-16T06:26:49.348Z,6.70
2023-02-16T06:29:18.990Z,6.38
2023-02-16T06:31:48.115Z,14.57
2023-02-16T06:34:17.145Z,9.48
2023-02-16T06:36:46.040Z,7.50
2023-02-16T06:39:14.942Z,8.38
2023-02-16T06:41:43.893Z,8.98
2023-02-16T06:44:15.217Z,8.85
2023-02-16T06:46:46.352Z,9.02
2023-02-16T06:49:20.186Z,6.30
2023-02-16T06:51:50.991Z,7.70
2023-02-16T06:54:20.601Z,7.20
2023-02-16T06:56:49.497Z,6.55
2023-02-16T06:59:18.657Z,5.95
2023-02-16T07:01:48.009Z,6.43
2023-02-16T07:04:16.858Z,5.80
2023-02-16T07:06:45.725Z,8.32
2023-02-16T07:09:14.649Z,5.90
2023-02-16T07:11:43.524Z,11.40
2023-02-16T07:14:12.666Z,7.93
2023-02-16T07:16:41.627Z,11.27
2023-02-16T07:19:10.996Z,6.85
2023-02-16T07:21:39.923Z,7.07
2023-02-16T07:24:09.191Z,10.32
2023-02-16T07:26:40.013Z,7.10
2023-02-16T07:29:09.018Z,8.77
2023-02-16T07:31:37.990Z,5.70
2023-02-16T07:34:07.060Z,11.07
2023-02-16T07:36:36.298Z,7.30
2023-02-16T07:39:05.513Z,9.57
2023-02-16T07:41:34.697Z,7.35
2023-02-16T07:44:03.638Z,5.72
2023-02-16T07:46:33.400Z,11.20
2023-02-16T07:49:02.596Z,9.63
2023-02-16T07:51:33.173Z,8.38
2023-02-16T07:54:03.614Z,10.43
2023-02-16T07:56:34.556Z,6.57
2023-02-16T07:59:04.929Z,7.25
2023-02-16T08:01:35.426Z,6.00
2023-02-16T08:04:04.776Z,8.25
2023-02-16T08:06:35.425Z,10.95
2023-02-16T08:09:04.543Z,6.32
2023-02-16T08:11:33.501Z,8.48
2023-02-16T08:14:02.525Z,6.93
2023-02-16T08:16:31.996Z,8.95
2023-02-16T08:19:02.502Z,7.72
2023-02-16T08:21:34.181Z,7.65
2023-02-16T08:24:08.184Z,9.38
2023-02-16T08:26:40.637Z,9.43
2023-02-16T08:29:19.304Z,9.20
2023-02-16T08:31:49.411Z,11.25
2023-02-16T08:34:20.791Z,6.32
2023-02-16T08:36:54.233Z,6.95
2023-02-16T08:39:24.370Z,7.30
2023-02-16T08:41:54.045Z,16.63
2023-02-16T08:44:25.194Z,11.05
2023-02-16T08:46:56.630Z,9.02
2023-02-16T08:49:26.071Z,6.88
2023-02-16T08:51:57.320Z,6.85
2023-02-16T08:54:31.617Z,6.43
2023-02-16T08:57:03.814Z,7.07
2023-02-16T08:59:34.416Z,8.93
2023-02-16T09:02:03.500Z,5.88
2023-02-16T09:04:32.910Z,8.18
2023-02-16T09:07:01.956Z,8.85
2023-02-16T09:09:31.000Z,14.52
2023-02-16T09:11:59.979Z,8.93
2023-02-16T09:14:29.075Z,10.10
2023-02-16T09:16:59.110Z,7.88
2023-02-16T09:19:29.382Z,8.18
2023-02-16T09:21:58.269Z,9.23
2023-02-16T09:24:27.994Z,10.38
2023-02-16T09:26:56.846Z,7.05
2023-02-16T09:29:25.691Z,9.18
2023-02-16T09:31:56.811Z,6.93
2023-02-16T09:34:27.746Z,16.05
2023-02-16T09:36:56.858Z,8.30
2023-02-16T09:39:25.735Z,11.00
2023-02-16T09:42:22.062Z,7.53
2023-02-16T09:45:17.970Z,8.18
2023-02-16T09:47:49.194Z,8.57
2023-02-16T09:50:50.396Z,8.68
2023-02-16T09:53:30.132Z,9.10
2023-02-16T09:56:28.852Z,12.82
2023-02-16T09:59:31.950Z,11.45
2023-02-16T10:02:52.162Z,10.18
2023-02-16T10:05:34.055Z,7.90
2023-02-16T10:08:15.508Z,10.07
2023-02-16T10:11:33.035Z,9.13
2023-02-16T10:14:09.809Z,9.07
2023-02-16T10:16:44.076Z,8.95
2023-02-16T10:19:47.641Z,9.75
2023-02-16T10:22:22.526Z,10.35
2023-02-16T10:25:16.690Z,10.18
2023-02-16T10:27:48.839Z,10.55
2023-02-16T10:30:23.069Z,8.43
2023-02-16T10:33:09.282Z,9.50
2023-02-16T10:35:38.329Z,10.98
2023-02-16T10:38:23.639Z,12.05
2023-02-16T10:41:01.891Z,10.82
2023-02-16T10:43:49.328Z,11.32
2023-02-16T10:46:26.942Z,9.80
2023-02-16T10:48:57.720Z,11.57
2023-02-16T10:51:32.858Z,11.85
2023-02-16T10:54:08.788Z,12.65
2023-02-16T10:56:43.712Z,12.50
2023-02-16T10:59:25.868Z,9.57
2023-02-16T11:01:58.569Z,8.55
2023-02-16T11:04:45.078Z,15.90
2023-02-16T11:07:19.887Z,11.65
2023-02-16T11:09:56.271Z,12.30
2023-02-16T11:12:45.012Z,12.35
2023-02-16T11:15:20.396Z,11.75
2023-02-16T11:18:05.909Z,11.38
2023-02-16T11:20:46.179Z,17.33
2023-02-16T11:23:40.054Z,15.02
2023-02-16T11:26:11.835Z,9.27
2023-02-16T11:28:45.409Z,11.43
2023-02-16T11:34:06.109Z,10.45
2023-02-16T11:36:46.096Z,13.55
2023-02-16T11:39:21.059Z,16.88
2023-02-16T11:42:05.203Z,11.82
2023-02-16T11:47:10.306Z,13.02
2023-02-16T11:49:44.464Z,14.23
2023-02-16T11:52:33.750Z,14.65
2023-02-16T11:55:04.161Z,17.88
2023-02-16T11:57:37.080Z,19.80
2023-02-16T12:00:20.450Z,14.15
2023-02-16T12:03:04.103Z,16.70
2023-02-16T12:05:46.392Z,16.08
2023-02-16T12:08:38.868Z,13.02
2023-02-16T12:11:08.000Z,17.63
2023-02-16T12:14:08.248Z,21.10
2023-02-16T12:16:58.667Z,14.65
2023-02-16T12:19:41.706Z,16.65
2023-02-16T12:22:17.566Z,17.95
2023-02-16T12:25:14.522Z,16.88
2023-02-16T12:28:02.845Z,22.30
2023-02-16T12:31:01.528Z,22.85
2023-02-16T12:33:41.312Z,24.58
2023-02-16T12:36:43.184Z,22.38
2023-02-16T12:39:21.180Z,21.48
2023-02-16T12:42:14.416Z,21.63
2023-02-16T12:45:01.092Z,24.67
2023-02-16T12:47:42.807Z,27.77
2023-02-16T12:50:32.172Z,23.88
2023-02-16T12:53:16.387Z,21.38
2023-02-16T12:58:32.726Z,20.33
2023-02-16T13:01:22.886Z,21.88
2023-02-16T13:03:51.845Z,18.67
2023-02-16T13:06:38.636Z,19.42
2023-02-16T13:09:17.326Z,25.70
2023-02-16T13:12:02.617Z,19.60
2023-02-16T13:14:38.868Z,24.95
2023-02-16T13:17:19.348Z,18.38
2023-02-16T13:19:49.105Z,19.30
2023-02-16T13:22:29.976Z,24.00
2023-02-16T13:25:04.944Z,17.90
2023-02-16T13:27:58.227Z,19.52
2023-02-16T13:30:36.490Z,16.77
2023-02-16T13:33:26.642Z,20.02
2023-02-16T13:36:12.000Z,20.15
2023-02-16T13:39:02.058Z,20.83
2023-02-16T13:41:40.108Z,18.33
2023-02-16T13:44:17.469Z,20.65
2023-02-16T13:46:51.275Z,18.75
2023-02-16T13:49:45.988Z,18.92
2023-02-16T13:52:36.088Z,18.13
2023-02-16T13:55:11.094Z,21.67
2023-02-16T13:57:53.104Z,17.52
2023-02-16T14:00:36.657Z,23.77
2023-02-16T14:03:34.909Z,21.95
2023-02-16T14:06:38.646Z,19.45
2023-02-16T14:09:20.444Z,22.23
2023-02-16T14:11:58.918Z,19.58
2023-02-16T14:14:54.790Z,20.17
2023-02-16T14:17:26.248Z,20.08
2023-02-16T14:20:07.627Z,24.10
2023-02-16T14:22:51.968Z,24.63
2023-02-16T14:28:23.519Z,21.25
2023-02-16T14:31:00.646Z,22.35
2023-02-16T14:33:56.436Z,25.95
2023-02-16T14:36:28.108Z,26.17
2023-02-16T14:39:02.656Z,23.83
2023-02-16T14:41:35.389Z,23.60
2023-02-16T14:44:07.571Z,22.90
2023-02-16T14:46:42.745Z,24.25
2023-02-16T14:49:45.114Z,22.45
2023-02-16T14:52:41.430Z,29.88
2023-02-16T14:56:00.809Z,22.88
2023-02-16T14:58:53.039Z,26.20
2023-02-16T15:01:22.984Z,23.40
2023-02-16T15:03:57.484Z,22.05
2023-02-16T15:06:45.796Z,22.02
2023-02-16T15:09:25.062Z,28.15
2023-02-16T15:12:13.014Z,22.02
2023-02-16T15:14:55.021Z,23.98
2023-02-16T15:17:47.190Z,24.45
2023-02-16T15:20:16.131Z,25.70
2023-02-16T15:22:55.673Z,23.27
2023-02-16T15:25:30.389Z,24.02
2023-02-16T15:28:21.115Z,22.55
2023-02-16T15:30:52.887Z,21.48
2023-02-16T15:33:24.685Z,27.02
2023-02-16T15:36:00.986Z,23.85
2023-02-16T15:38:35.792Z,23.83
2023-02-16T15:41:08.060Z,22.58
2023-02-16T15:43:48.621Z,22.80
2023-02-16T15:46:29.541Z,24.65
2023-02-16T15:48:59.349Z,21.55
2023-02-16T15:51:35.075Z,26.55
2023-02-16T15:54:14.849Z,22.80
2023-02-16T15:56:55.369Z,21.23
2023-02-16T15:59:39.688Z,21.90
2023-02-16T16:02:26.764Z,22.40
2023-02-16T16:05:02.444Z,21.58
2023-02-16T16:07:34.125Z,26.08
2023-02-16T16:10:05.634Z,22.95
2023-02-16T16:12:34.621Z,24.27
2023-02-16T16:15:05.526Z,20.60
2023-02-16T16:17:40.864Z,21.90
2023-02-16T16:20:31.607Z,17.23
2023-02-16T16:23:30.051Z,19.38
2023-02-16T16:25:59.894Z,20.83
2023-02-16T16:28:28.833Z,19.00
2023-02-16T16:31:16.925Z,18.55
2023-02-16T16:34:03.989Z,16.23
2023-02-16T16:36:36.898Z,18.95
2023-02-16T16:39:28.495Z,17.92
2023-02-16T16:42:22.768Z,22.85
2023-02-16T16:45:06.213Z,21.27
2023-02-16T16:47:40.957Z,20.20
2023-02-16T16:50:15.893Z,18.05
2023-02-16T16:52:47.496Z,16.50
2023-02-16T16:55:26.209Z,19.90
2023-02-16T16:58:01.560Z,16.70
2023-02-16T17:00:35.632Z,16.20
2023-02-16T17:05:35.361Z,20.05
2023-02-16T17:08:04.243Z,21.50
2023-02-16T17:10:33.645Z,19.40
2023-02-16T17:13:03.963Z,19.50
2023-02-16T17:15:52.510Z,17.08
2023-02-16T17:18:23.309Z,21.48
2023-02-16T17:20:52.794Z,17.73
2023-02-16T17:23:23.230Z,18.88
2023-02-16T17:25:52.531Z,17.45
2023-02-16T17:28:22.719Z,22.27
2023-02-16T17:30:51.755Z,19.73
2023-02-16T17:33:21.492Z,17.45
2023-02-16T17:35:50.600Z,18.70
2023-02-16T17:38:22.043Z,17.48
2023-02-16T17:40:53.704Z,18.75
2023-02-16T17:43:23.508Z,20.48
2023-02-16T17:45:53.597Z,19.95
2023-02-16T17:48:28.837Z,19.17
2023-02-16T17:50:59.515Z,19.25
2023-02-16T17:53:29.625Z,17.05
2023-02-16T17:55:59.708Z,17.25
2023-02-16T17:58:28.583Z,17.75
2023-02-16T18:00:57.638Z,19.45
2023-02-16T18:03:26.806Z,17.92
2023-02-16T18:05:55.890Z,20.27
2023-02-16T18:08:25.141Z,18.38
2023-02-16T18:11:02.878Z,19.05
2023-02-16T18:13:32.529Z,15.77
2023-02-16T18:16:05.678Z,20.50
2023-02-16T18:18:40.189Z,19.13
2023-02-16T18:21:09.434Z,18.25
2023-02-16T18:23:38.610Z,19.90
2023-02-16T18:26:08.056Z,20.48
2023-02-16T18:28:37.101Z,18.48
2023-02-16T18:31:09.054Z,21.83
2023-02-16T18:33:38.247Z,22.13
2023-02-16T18:36:07.744Z,19.58
2023-02-16T18:38:37.323Z,20.65
2023-02-16T18:41:06.753Z,17.75
2023-02-16T18:43:38.018Z,18.70
2023-02-16T18:46:09.104Z,19.17
2023-02-16T18:48:38.257Z,20.55
2023-02-16T18:51:09.945Z,21.42
2023-02-16T18:53:39.293Z,16.45
2023-02-16T18:56:10.369Z,20.02
2023-02-16T18:58:39.602Z,20.85
2023-02-16T19:01:34.469Z,20.70
2023-02-16T19:04:04.712Z,17.38
2023-02-16T19:06:34.714Z,18.55
2023-02-16T19:09:03.621Z,17.83
2023-02-16T19:11:33.861Z,21.20
2023-02-16T19:14:02.781Z,19.95
2023-02-16T19:16:31.747Z,22.60
2023-02-16T19:19:00.725Z,17.98
2023-02-16T19:21:29.638Z,21.00
2023-02-16T19:23:58.768Z,18.35
2023-02-16T19:26:28.029Z,18.05
2023-02-16T19:28:57.181Z,23.70
2023-02-16T19:31:32.183Z,19.80
2023-02-16T19:34:01.692Z,20.30
2023-02-16T19:36:33.192Z,18.80
2023-02-16T19:39:05.253Z,20.73
2023-02-16T19:41:38.558Z,19.25
2023-02-16T19:44:07.691Z,18.73
2023-02-16T19:46:36.630Z,20.52
2023-02-16T19:49:05.995Z,15.75
2023-02-16T19:51:35.288Z,17.30
2023-02-16T19:54:04.488Z,21.63
2023-02-16T19:56:33.625Z,19.98
2023-02-16T19:59:02.591Z,17.15
2023-02-16T20:01:31.475Z,18.52
2023-02-16T20:04:01.359Z,19.75
2023-02-16T20:06:33.543Z,19.15
2023-02-16T20:09:03.388Z,17.75
2023-02-16T20:11:32.870Z,21.33
2023-02-16T20:14:02.565Z,19.00
2023-02-16T20:16:31.580Z,17.48
2023-02-16T20:19:00.678Z,21.45
2023-02-16T20:21:31.251Z,20.23
2023-02-16T20:24:03.114Z,22.52
2023-02-16T20:26:44.236Z,22.65
2023-02-16T20:29:17.343Z,20.60
2023-02-16T20:31:57.606Z,26.65
2023-02-16T20:34:28.598Z,21.08
2023-02-16T20:36:57.580Z,20.42
2023-02-16T20:39:26.763Z,18.00
2023-02-16T20:41:55.840Z,18.88
2023-02-16T20:44:24.739Z,20.30
2023-02-16T20:46:54.058Z,19.60
2023-02-16T20:49:23.057Z,21.17
2023-02-16T20:51:51.949Z,21.00
2023-02-16T20:54:20.903Z,19.00
2023-02-16T20:56:49.841Z,19.08
2023-02-16T20:59:18.747Z,18.95
2023-02-16T21:01:51.823Z,19.33
2023-02-16T21:04:21.862Z,18.30
2023-02-16T21:06:51.092Z,20.50
2023-02-16T21:09:20.005Z,20.25
2023-02-16T21:11:49.059Z,17.98
2023-02-16T21:14:18.073Z,19.13
2023-02-16T21:16:47.743Z,22.58
2023-02-16T21:19:22.837Z,18.52
2023-02-16T21:21:53.024Z,22.90
2023-02-16T21:24:22.047Z,28.42
2023-02-16T21:26:50.974Z,28.05
2023-02-16T21:29:19.945Z,26.40
2023-02-16T21:31:48.944Z,26.00
2023-02-16T21:34:17.905Z,25.08
2023-02-16T21:36:46.948Z,27.88
2023-02-16T21:39:15.844Z,26.58
2023-02-16T21:41:44.722Z,25.38
2023-02-16T21:44:19.155Z,27.67
2023-02-16T21:46:49.081Z,24.88
2023-02-16T21:49:20.756Z,25.88
2023-02-16T21:51:50.438Z,19.85
2023-02-16T21:54:40.403Z,17.27
2023-02-16T21:57:09.319Z,20.33
2023-02-16T21:59:38.864Z,20.50
2023-02-16T22:02:07.760Z,23.02
2023-02-16T22:04:36.711Z,22.55
2023-02-16T22:07:05.607Z,24.02
2023-02-16T22:09:34.498Z,25.83
2023-02-16T22:12:03.445Z,33.17
2023-02-16T22:14:34.297Z,28.27
2023-02-16T22:17:04.243Z,29.73
2023-02-16T22:19:33.466Z,32.90
2023-02-16T22:22:02.388Z,35.70
2023-02-16T22:24:31.267Z,27.70
2023-02-16T22:27:00.201Z,29.52
2023-02-16T22:29:29.027Z,29.95
2023-02-16T22:31:57.915Z,30.17
2023-02-16T22:34:26.791Z,29.08
2023-02-16T22:36:55.758Z,31.65
2023-02-16T22:39:24.646Z,31.48
2023-02-16T22:41:53.492Z,33.33
2023-02-16T22:44:22.814Z,34.25
2023-02-16T22:46:51.739Z,32.40
2023-02-16T22:49:20.633Z,27.52
2023-02-16T22:51:49.732Z,32.40
2023-02-16T22:54:18.572Z,31.60
2023-02-16T22:56:47.921Z,28.50
2023-02-16T22:59:16.854Z,24.88
2023-02-16T23:01:45.740Z,26.48
2023-02-16T23:04:18.117Z,28.50
2023-02-16T23:06:47.462Z,25.60
2023-02-16T23:09:22.032Z,27.63
2023-02-16T23:11:51.480Z,26.38
2023-02-16T23:14:22.170Z,25.05
2023-02-16T23:16:55.442Z,21.77
2023-02-16T23:19:26.856Z,23.15
2023-02-16T23:21:56.281Z,23.35
2023-02-16T23:24:26.150Z,27.45
2023-02-16T23:26:55.596Z,21.48
2023-02-16T23:29:24.721Z,21.92
2023-02-16T23:31:54.716Z,26.17
2023-02-16T23:34:23.751Z,28.88
2023-02-16T23:36:52.683Z,25.52
2023-02-16T23:39:21.701Z,24.30
2023-02-16T23:41:50.681Z,27.48
2023-02-16T23:44:19.921Z,27.17
2023-02-16T23:46:48.889Z,29.58
2023-02-16T23:49:17.858Z,26.45
2023-02-16T23:51:46.795Z,36.20
2023-02-16T23:54:15.762Z,29.17
2023-02-16T23:56:44.705Z,29.10
2023-02-16T23:59:13.664Z,29.50
